TTPP/POS METAR and TAF weather

Enter ICAO airport designator
Station Type Date Time Source
TTPP METAR 2019/07/20 05:00 UTC NOAA

TTPP 200500Z 00000KT 9999 FEW018 26/22 Q1014 NOSIG


Station Type Date Time Source
TTPP Decoded METAR 2019/07/20 05:00 UTC NOAA

Piarco International Airport, Trinidad, Trinidad and Tobago (TTPP) 10-37N 061-21W 15M
Jul 20, 2019 - 01:00 AM EDT / 2019.07.20 0500 UTC
Wind: Calm:0
Visibility: greater than 7 mile(s):0
Sky conditions: mostly clear
Temperature: 78 F (26 C)
Dew Point: 71 F (22 C)
Relative Humidity: 78%
Pressure (altimeter): 29.94 in. Hg (1014 hPa)
ob: TTPP 200500Z 00000KT 9999 FEW018 26/22 Q1014 NOSIG
cycle: 5

Station Type Date Time Source
TTPP TAF 2019/07/20 06:42 UTC NOAA

TAF TTPP 200400Z 2006/2106 00000KT 9999 FEW018
BECMG 2012/2014 11010KT SCT022
BECMG 2023/2101 00000KT FEW018

Example: see airport list